sensor_id;sensor_type;location;lat;lon;timestamp;P1;durP1;ratioP1;P2;durP2;ratioP2
39822;SDS011;25499;53.958;10.970;2022-07-05T05:02:12;2.22;;;1.67;;
39822;SDS011;25499;53.958;10.970;2022-07-05T05:04:38;4.47;;;2.00;;
39822;SDS011;25499;53.958;10.970;2022-07-05T05:07:03;2.53;;;1.80;;
39822;SDS011;25499;53.958;10.970;2022-07-05T05:09:29;2.65;;;1.67;;
39822;SDS011;25499;53.958;10.970;2022-07-05T05:11:54;3.45;;;1.70;;
39822;SDS011;25499;53.958;10.970;2022-07-05T05:14:20;7.97;;;1.63;;
39822;SDS011;25499;53.958;10.970;2022-07-05T05:16:45;5.43;;;1.70;;
39822;SDS011;25499;53.958;10.970;2022-07-05T05:19:10;2.80;;;1.80;;
39822;SDS011;25499;53.958;10.970;2022-07-05T05:21:36;2.40;;;1.27;;
39822;SDS011;25499;53.958;10.970;2022-07-05T05:24:01;4.03;;;1.80;;
39822;SDS011;25499;53.958;10.970;2022-07-05T05:26:26;2.88;;;1.58;;
39822;SDS011;25499;53.958;10.970;2022-07-05T05:28:52;4.10;;;1.45;;
39822;SDS011;25499;53.958;10.970;2022-07-05T05:31:18;4.20;;;1.67;;
39822;SDS011;25499;53.958;10.970;2022-07-05T05:33:43;1.48;;;1.38;;
39822;SDS011;25499;53.958;10.970;2022-07-05T05:36:09;4.40;;;2.08;;
39822;SDS011;25499;53.958;10.970;2022-07-05T05:38:35;2.88;;;1.90;;
39822;SDS011;25499;53.958;10.970;2022-07-05T05:41:00;3.35;;;1.45;;
39822;SDS011;25499;53.958;10.970;2022-07-05T05:43:25;3.80;;;1.60;;
39822;SDS011;25499;53.958;10.970;2022-07-05T05:45:51;2.55;;;1.60;;
39822;SDS011;25499;53.958;10.970;2022-07-05T05:48:16;4.53;;;1.60;;
39822;SDS011;25499;53.958;10.970;2022-07-05T05:50:42;2.65;;;1.40;;
39822;SDS011;25499;53.958;10.970;2022-07-05T05:53:07;2.08;;;1.55;;
39822;SDS011;25499;53.958;10.970;2022-07-05T05:55:33;4.30;;;1.73;;
39822;SDS011;25499;53.958;10.970;2022-07-05T05:58:12;1.98;;;1.70;;
39822;SDS011;25499;53.958;10.970;2022-07-05T06:00:42;5.20;;;1.75;;
39822;SDS011;25499;53.958;10.970;2022-07-05T06:03:08;4.78;;;1.50;;
39822;SDS011;25499;53.958;10.970;2022-07-05T06:05:34;5.75;;;1.75;;
39822;SDS011;25499;53.958;10.970;2022-07-05T06:08:00;2.58;;;1.40;;
39822;SDS011;25499;53.958;10.970;2022-07-05T06:10:26;3.58;;;1.40;;
39822;SDS011;25499;53.958;10.970;2022-07-05T06:12:53;5.05;;;1.40;;
39822;SDS011;25499;53.958;10.970;2022-07-05T06:15:20;3.75;;;1.73;;
39822;SDS011;25499;53.958;10.970;2022-07-05T06:17:46;3.88;;;1.30;;
39822;SDS011;25499;53.958;10.970;2022-07-05T06:20:16;3.05;;;1.40;;
39822;SDS011;25499;53.958;10.970;2022-07-05T06:22:43;5.85;;;1.58;;
39822;SDS011;25499;53.958;10.970;2022-07-05T06:25:10;2.00;;;1.40;;
39822;SDS011;25499;53.958;10.970;2022-07-05T06:27:41;4.05;;;1.17;;
39822;SDS011;25499;53.958;10.970;2022-07-05T06:30:08;3.20;;;1.10;;
39822;SDS011;25499;53.958;10.970;2022-07-05T06:32:34;1.80;;;1.20;;
39822;SDS011;25499;53.958;10.970;2022-07-05T06:35:00;2.13;;;1.30;;
39822;SDS011;25499;53.958;10.970;2022-07-05T06:37:25;3.30;;;1.00;;
39822;SDS011;25499;53.958;10.970;2022-07-05T06:39:50;2.88;;;1.17;;
39822;SDS011;25499;53.958;10.970;2022-07-05T06:42:16;5.32;;;1.15;;
39822;SDS011;25499;53.958;10.970;2022-07-05T06:44:41;2.05;;;0.90;;
39822;SDS011;25499;53.958;10.970;2022-07-05T06:47:07;5.07;;;1.00;;
39822;SDS011;25499;53.958;10.970;2022-07-05T06:49:33;1.42;;;0.88;;
39822;SDS011;25499;53.958;10.970;2022-07-05T06:51:58;1.83;;;1.00;;
39822;SDS011;25499;53.958;10.970;2022-07-05T06:54:24;7.47;;;1.02;;
39822;SDS011;25499;53.958;10.970;2022-07-05T06:56:49;3.22;;;1.10;;
39822;SDS011;25499;53.958;10.970;2022-07-05T06:59:14;3.75;;;0.90;;
39822;SDS011;25499;53.958;10.970;2022-07-05T07:01:43;1.50;;;0.80;;
39822;SDS011;25499;53.958;10.970;2022-07-05T07:04:08;1.77;;;0.82;;
39822;SDS011;25499;53.958;10.970;2022-07-05T07:06:33;3.35;;;1.08;;
39822;SDS011;25499;53.958;10.970;2022-07-05T07:08:58;1.60;;;0.90;;
39822;SDS011;25499;53.958;10.970;2022-07-05T07:11:42;3.47;;;0.90;;
39822;SDS011;25499;53.958;10.970;2022-07-05T07:14:09;4.38;;;0.90;;
39822;SDS011;25499;53.958;10.970;2022-07-05T07:16:35;4.47;;;0.93;;
39822;SDS011;25499;53.958;10.970;2022-07-05T07:19:00;2.72;;;0.70;;
39822;SDS011;25499;53.958;10.970;2022-07-05T07:21:26;2.95;;;0.85;;
39822;SDS011;25499;53.958;10.970;2022-07-05T07:23:51;3.03;;;0.90;;
39822;SDS011;25499;53.958;10.970;2022-07-05T07:26:17;1.10;;;0.68;;
39822;SDS011;25499;53.958;10.970;2022-07-05T07:28:42;2.20;;;0.88;;
39822;SDS011;25499;53.958;10.970;2022-07-05T07:31:07;4.25;;;0.70;;
39822;SDS011;25499;53.958;10.970;2022-07-05T07:33:33;3.03;;;0.60;;
39822;SDS011;25499;53.958;10.970;2022-07-05T07:35:59;2.63;;;0.70;;
39822;SDS011;25499;53.958;10.970;2022-07-05T07:38:24;5.05;;;0.90;;
39822;SDS011;25499;53.958;10.970;2022-07-05T07:40:50;1.88;;;0.70;;
39822;SDS011;25499;53.958;10.970;2022-07-05T07:43:16;2.75;;;0.75;;
39822;SDS011;25499;53.958;10.970;2022-07-05T07:45:41;3.65;;;0.80;;
39822;SDS011;25499;53.958;10.970;2022-07-05T07:48:07;2.63;;;0.60;;
39822;SDS011;25499;53.958;10.970;2022-07-05T07:50:33;2.58;;;0.70;;
39822;SDS011;25499;53.958;10.970;2022-07-05T07:52:58;1.85;;;0.70;;
39822;SDS011;25499;53.958;10.970;2022-07-05T07:55:24;2.90;;;0.65;;
39822;SDS011;25499;53.958;10.970;2022-07-05T07:57:49;1.35;;;0.70;;
39822;SDS011;25499;53.958;10.970;2022-07-05T08:00:14;2.45;;;0.80;;
39822;SDS011;25499;53.958;10.970;2022-07-05T08:02:40;4.05;;;0.93;;
39822;SDS011;25499;53.958;10.970;2022-07-05T08:05:20;1.38;;;0.80;;
39822;SDS011;25499;53.958;10.970;2022-07-05T08:07:46;2.15;;;0.70;;
39822;SDS011;25499;53.958;10.970;2022-07-05T08:10:11;2.10;;;0.60;;
39822;SDS011;25499;53.958;10.970;2022-07-05T08:12:36;4.72;;;0.80;;
39822;SDS011;25499;53.958;10.970;2022-07-05T08:15:02;1.27;;;0.63;;
39822;SDS011;25499;53.958;10.970;2022-07-05T08:17:28;4.00;;;0.55;;
39822;SDS011;25499;53.958;10.970;2022-07-05T08:19:53;2.60;;;1.33;;
39822;SDS011;25499;53.958;10.970;2022-07-05T08:22:37;7.43;;;1.42;;
39822;SDS011;25499;53.958;10.970;2022-07-05T08:25:02;2.47;;;1.00;;
39822;SDS011;25499;53.958;10.970;2022-07-05T08:27:27;2.40;;;0.65;;
39822;SDS011;25499;53.958;10.970;2022-07-05T08:29:53;1.60;;;0.65;;
39822;SDS011;25499;53.958;10.970;2022-07-05T08:32:18;0.63;;;0.50;;
39822;SDS011;25499;53.958;10.970;2022-07-05T08:34:44;2.22;;;0.70;;
39822;SDS011;25499;53.958;10.970;2022-07-05T08:39:44;1.75;;;0.65;;
39822;SDS011;25499;53.958;10.970;2022-07-05T08:42:09;3.20;;;0.75;;
39822;SDS011;25499;53.958;10.970;2022-07-05T08:44:36;1.23;;;0.40;;
39822;SDS011;25499;53.958;10.970;2022-07-05T08:47:04;1.65;;;0.70;;
39822;SDS011;25499;53.958;10.970;2022-07-05T08:49:33;3.13;;;0.73;;
39822;SDS011;25499;53.958;10.970;2022-07-05T08:57:11;1.35;;;0.60;;
39822;SDS011;25499;53.958;10.970;2022-07-05T08:59:36;3.03;;;0.60;;
39822;SDS011;25499;53.958;10.970;2022-07-05T09:02:01;2.05;;;1.02;;
39822;SDS011;25499;53.958;10.970;2022-07-05T09:04:29;1.48;;;0.68;;
39822;SDS011;25499;53.958;10.970;2022-07-05T09:09:32;1.92;;;0.60;;
39822;SDS011;25499;53.958;10.970;2022-07-05T09:12:03;0.75;;;0.40;;
39822;SDS011;25499;53.958;10.970;2022-07-05T09:14:29;1.35;;;0.43;;
39822;SDS011;25499;53.958;10.970;2022-07-05T09:16:54;1.52;;;0.60;;
39822;SDS011;25499;53.958;10.970;2022-07-05T09:19:23;1.58;;;0.50;;
39822;SDS011;25499;53.958;10.970;2022-07-05T09:21:48;1.20;;;0.50;;
39822;SDS011;25499;53.958;10.970;2022-07-05T09:26:55;1.40;;;0.43;;
39822;SDS011;25499;53.958;10.970;2022-07-05T09:29:27;1.55;;;0.30;;
39822;SDS011;25499;53.958;10.970;2022-07-05T09:31:53;2.05;;;0.47;;
39822;SDS011;25499;53.958;10.970;2022-07-05T09:34:19;1.02;;;0.30;;
39822;SDS011;25499;53.958;10.970;2022-07-05T09:36:52;1.05;;;0.32;;
39822;SDS011;25499;53.958;10.970;2022-07-05T09:39:18;2.22;;;0.35;;
39822;SDS011;25499;53.958;10.970;2022-07-05T09:42:18;1.10;;;0.30;;
39822;SDS011;25499;53.958;10.970;2022-07-05T09:44:52;0.63;;;0.30;;
39822;SDS011;25499;53.958;10.970;2022-07-05T09:47:20;0.95;;;0.22;;
39822;SDS011;25499;53.958;10.970;2022-07-05T09:52:35;0.70;;;0.30;;
39822;SDS011;25499;53.958;10.970;2022-07-05T09:55:03;0.40;;;0.20;;
39822;SDS011;25499;53.958;10.970;2022-07-05T09:57:29;1.80;;;0.30;;
39822;SDS011;25499;53.958;10.970;2022-07-05T09:59:59;2.03;;;0.35;;
39822;SDS011;25499;53.958;10.970;2022-07-05T10:02:42;1.17;;;0.20;;
39822;SDS011;25499;53.958;10.970;2022-07-05T10:07:39;0.30;;;0.20;;
39822;SDS011;25499;53.958;10.970;2022-07-05T10:10:12;0.68;;;0.25;;
39822;SDS011;25499;53.958;10.970;2022-07-05T10:12:39;0.43;;;0.20;;
39822;SDS011;25499;53.958;10.970;2022-07-05T10:15:06;2.97;;;0.35;;
39822;SDS011;25499;53.958;10.970;2022-07-05T10:17:35;1.00;;;0.30;;
39822;SDS011;25499;53.958;10.970;2022-07-05T10:20:05;1.60;;;0.30;;
39822;SDS011;25499;53.958;10.970;2022-07-05T10:22:53;0.75;;;0.30;;
39822;SDS011;25499;53.958;10.970;2022-07-05T10:25:20;2.58;;;0.40;;
39822;SDS011;25499;53.958;10.970;2022-07-05T10:27:47;2.50;;;0.30;;
39822;SDS011;25499;53.958;10.970;2022-07-05T10:30:17;1.95;;;0.20;;
39822;SDS011;25499;53.958;10.970;2022-07-05T10:32:43;2.30;;;0.25;;
39822;SDS011;25499;53.958;10.970;2022-07-05T10:35:09;0.70;;;0.20;;
39822;SDS011;25499;53.958;10.970;2022-07-05T10:37:35;0.20;;;0.20;;
39822;SDS011;25499;53.958;10.970;2022-07-05T10:40:02;1.10;;;0.30;;
39822;SDS011;25499;53.958;10.970;2022-07-05T10:43:12;1.23;;;0.30;;
39822;SDS011;25499;53.958;10.970;2022-07-05T10:50:51;0.98;;;0.30;;
39822;SDS011;25499;53.958;10.970;2022-07-05T10:53:24;0.43;;;0.22;;
39822;SDS011;25499;53.958;10.970;2022-07-05T11:06:22;0.93;;;0.25;;
39822;SDS011;25499;53.958;10.970;2022-07-05T11:13:49;0.95;;;0.30;;
39822;SDS011;25499;53.958;10.970;2022-07-05T11:18:52;1.25;;;0.43;;
39822;SDS011;25499;53.958;10.970;2022-07-05T11:21:28;0.90;;;0.30;;
39822;SDS011;25499;53.958;10.970;2022-07-05T11:23:55;2.03;;;0.30;;
39822;SDS011;25499;53.958;10.970;2022-07-05T11:26:45;0.95;;;0.30;;
39822;SDS011;25499;53.958;10.970;2022-07-05T11:32:10;1.33;;;0.20;;
39822;SDS011;25499;53.958;10.970;2022-07-05T11:34:38;0.55;;;0.30;;
39822;SDS011;25499;53.958;10.970;2022-07-05T11:40:34;1.38;;;0.40;;
39822;SDS011;25499;53.958;10.970;2022-07-05T11:45:07;0.30;;;0.25;;
39822;SDS011;25499;53.958;10.970;2022-07-05T11:47:34;0.63;;;0.28;;
39822;SDS011;25499;53.958;10.970;2022-07-05T11:50:00;1.25;;;0.32;;
39822;SDS011;25499;53.958;10.970;2022-07-05T11:52:26;3.75;;;0.40;;
39822;SDS011;25499;53.958;10.970;2022-07-05T11:54:53;0.85;;;0.20;;
39822;SDS011;25499;53.958;10.970;2022-07-05T11:57:19;0.77;;;0.20;;
39822;SDS011;25499;53.958;10.970;2022-07-05T11:59:45;1.38;;;0.25;;
39822;SDS011;25499;53.958;10.970;2022-07-05T12:02:11;0.60;;;0.20;;
39822;SDS011;25499;53.958;10.970;2022-07-05T12:04:36;3.20;;;0.50;;
39822;SDS011;25499;53.958;10.970;2022-07-05T12:07:02;3.30;;;0.25;;
39822;SDS011;25499;53.958;10.970;2022-07-05T12:09:28;0.68;;;0.30;;
39822;SDS011;25499;53.958;10.970;2022-07-05T12:12:23;1.55;;;0.17;;
39822;SDS011;25499;53.958;10.970;2022-07-05T12:15:28;2.45;;;0.20;;
39822;SDS011;25499;53.958;10.970;2022-07-05T12:17:53;0.65;;;0.10;;
39822;SDS011;25499;53.958;10.970;2022-07-05T12:20:25;0.85;;;0.73;;
39822;SDS011;25499;53.958;10.970;2022-07-05T12:22:50;0.73;;;0.30;;
39822;SDS011;25499;53.958;10.970;2022-07-05T12:25:18;1.15;;;0.38;;
39822;SDS011;25499;53.958;10.970;2022-07-05T12:27:45;0.10;;;0.10;;
39822;SDS011;25499;53.958;10.970;2022-07-05T12:30:12;1.10;;;0.20;;
39822;SDS011;25499;53.958;10.970;2022-07-05T12:35:26;0.77;;;0.20;;
39822;SDS011;25499;53.958;10.970;2022-07-05T12:40:36;1.35;;;0.30;;
39822;SDS011;25499;53.958;10.970;2022-07-05T12:43:10;0.87;;;0.20;;
39822;SDS011;25499;53.958;10.970;2022-07-05T12:45:38;1.23;;;0.32;;
39822;SDS011;25499;53.958;10.970;2022-07-05T12:48:05;0.52;;;0.20;;
39822;SDS011;25499;53.958;10.970;2022-07-05T12:50:45;1.45;;;0.40;;
39822;SDS011;25499;53.958;10.970;2022-07-05T12:53:16;1.42;;;0.30;;
39822;SDS011;25499;53.958;10.970;2022-07-05T12:56:04;0.68;;;0.22;;
39822;SDS011;25499;53.958;10.970;2022-07-05T12:58:56;1.20;;;0.30;;
39822;SDS011;25499;53.958;10.970;2022-07-05T13:01:29;0.70;;;0.30;;
39822;SDS011;25499;53.958;10.970;2022-07-05T13:09:29;0.50;;;0.30;;
39822;SDS011;25499;53.958;10.970;2022-07-05T13:14:34;2.53;;;0.45;;
39822;SDS011;25499;53.958;10.970;2022-07-05T13:17:00;1.73;;;0.40;;
39822;SDS011;25499;53.958;10.970;2022-07-05T13:19:26;0.45;;;0.20;;
39822;SDS011;25499;53.958;10.970;2022-07-05T13:21:51;1.20;;;0.20;;
39822;SDS011;25499;53.958;10.970;2022-07-05T13:24:16;1.02;;;0.38;;
39822;SDS011;25499;53.958;10.970;2022-07-05T13:26:42;1.55;;;0.30;;
39822;SDS011;25499;53.958;10.970;2022-07-05T13:29:07;2.45;;;0.20;;
39822;SDS011;25499;53.958;10.970;2022-07-05T13:31:33;1.17;;;0.30;;
39822;SDS011;25499;53.958;10.970;2022-07-05T13:33:59;0.30;;;0.30;;
39822;SDS011;25499;53.958;10.970;2022-07-05T13:36:24;1.42;;;0.30;;
39822;SDS011;25499;53.958;10.970;2022-07-05T13:38:50;1.40;;;0.40;;
39822;SDS011;25499;53.958;10.970;2022-07-05T13:41:16;1.45;;;0.40;;
39822;SDS011;25499;53.958;10.970;2022-07-05T13:43:41;0.82;;;0.30;;
39822;SDS011;25499;53.958;10.970;2022-07-05T13:46:09;1.20;;;0.40;;
39822;SDS011;25499;53.958;10.970;2022-07-05T13:48:34;0.88;;;0.28;;
39822;SDS011;25499;53.958;10.970;2022-07-05T13:50:59;3.30;;;0.38;;
39822;SDS011;25499;53.958;10.970;2022-07-05T13:53:25;0.93;;;0.32;;
39822;SDS011;25499;53.958;10.970;2022-07-05T13:55:50;0.93;;;0.25;;
39822;SDS011;25499;53.958;10.970;2022-07-05T13:58:15;0.90;;;0.40;;
39822;SDS011;25499;53.958;10.970;2022-07-05T14:00:41;0.85;;;0.30;;
39822;SDS011;25499;53.958;10.970;2022-07-05T14:03:06;3.28;;;0.20;;
39822;SDS011;25499;53.958;10.970;2022-07-05T14:05:32;2.03;;;0.45;;
39822;SDS011;25499;53.958;10.970;2022-07-05T14:07:57;0.65;;;0.30;;
39822;SDS011;25499;53.958;10.970;2022-07-05T14:10:23;0.60;;;0.20;;
39822;SDS011;25499;53.958;10.970;2022-07-05T14:12:48;1.67;;;0.20;;
39822;SDS011;25499;53.958;10.970;2022-07-05T14:15:13;1.40;;;0.30;;
39822;SDS011;25499;53.958;10.970;2022-07-05T14:17:39;1.25;;;0.22;;
39822;SDS011;25499;53.958;10.970;2022-07-05T14:20:05;2.03;;;0.40;;
39822;SDS011;25499;53.958;10.970;2022-07-05T14:22:31;2.55;;;0.32;;
39822;SDS011;25499;53.958;10.970;2022-07-05T14:24:56;2.67;;;0.28;;
39822;SDS011;25499;53.958;10.970;2022-07-05T14:27:21;1.10;;;0.20;;
39822;SDS011;25499;53.958;10.970;2022-07-05T14:29:47;0.40;;;0.20;;
39822;SDS011;25499;53.958;10.970;2022-07-05T14:32:12;3.45;;;0.40;;
39822;SDS011;25499;53.958;10.970;2022-07-05T14:34:37;2.15;;;0.40;;
39822;SDS011;25499;53.958;10.970;2022-07-05T14:37:03;3.05;;;0.60;;
39822;SDS011;25499;53.958;10.970;2022-07-05T14:39:28;1.35;;;0.40;;
39822;SDS011;25499;53.958;10.970;2022-07-05T14:41:54;1.15;;;0.55;;
39822;SDS011;25499;53.958;10.970;2022-07-05T14:44:20;1.80;;;0.52;;
39822;SDS011;25499;53.958;10.970;2022-07-05T14:46:45;1.20;;;0.38;;
39822;SDS011;25499;53.958;10.970;2022-07-05T14:49:11;1.95;;;0.32;;
39822;SDS011;25499;53.958;10.970;2022-07-05T14:51:36;1.48;;;0.40;;
39822;SDS011;25499;53.958;10.970;2022-07-05T14:54:01;1.65;;;0.40;;
39822;SDS011;25499;53.958;10.970;2022-07-05T14:56:27;2.25;;;0.25;;
39822;SDS011;25499;53.958;10.970;2022-07-05T14:58:52;2.05;;;0.40;;
39822;SDS011;25499;53.958;10.970;2022-07-05T15:01:17;2.17;;;0.30;;
39822;SDS011;25499;53.958;10.970;2022-07-05T15:03:43;0.50;;;0.20;;
39822;SDS011;25499;53.958;10.970;2022-07-05T15:06:09;1.00;;;0.22;;
39822;SDS011;25499;53.958;10.970;2022-07-05T15:08:34;1.00;;;0.30;;
39822;SDS011;25499;53.958;10.970;2022-07-05T15:11:00;0.90;;;0.32;;
39822;SDS011;25499;53.958;10.970;2022-07-05T15:13:26;1.42;;;0.22;;
39822;SDS011;25499;53.958;10.970;2022-07-05T15:15:52;0.93;;;0.30;;
39822;SDS011;25499;53.958;10.970;2022-07-05T15:18:18;1.00;;;0.30;;
39822;SDS011;25499;53.958;10.970;2022-07-05T15:20:43;1.00;;;0.60;;
39822;SDS011;25499;53.958;10.970;2022-07-05T15:23:08;1.08;;;0.22;;
39822;SDS011;25499;53.958;10.970;2022-07-05T15:25:34;2.40;;;0.32;;
39822;SDS011;25499;53.958;10.970;2022-07-05T15:27:59;1.10;;;0.25;;
39822;SDS011;25499;53.958;10.970;2022-07-05T15:30:24;0.60;;;0.20;;
39822;SDS011;25499;53.958;10.970;2022-07-05T15:32:50;0.55;;;0.22;;
39822;SDS011;25499;53.958;10.970;2022-07-05T15:35:15;0.40;;;0.28;;
39822;SDS011;25499;53.958;10.970;2022-07-05T15:37:42;1.10;;;0.28;;
39822;SDS011;25499;53.958;10.970;2022-07-05T15:40:08;2.22;;;0.47;;
39822;SDS011;25499;53.958;10.970;2022-07-05T15:42:34;0.68;;;0.38;;
39822;SDS011;25499;53.958;10.970;2022-07-05T15:45:00;0.47;;;0.30;;
39822;SDS011;25499;53.958;10.970;2022-07-05T15:47:25;0.75;;;0.22;;
39822;SDS011;25499;53.958;10.970;2022-07-05T15:49:52;2.70;;;0.40;;
39822;SDS011;25499;53.958;10.970;2022-07-05T15:52:18;0.98;;;0.40;;
39822;SDS011;25499;53.958;10.970;2022-07-05T15:54:43;1.35;;;0.40;;
39822;SDS011;25499;53.958;10.970;2022-07-05T15:57:09;3.00;;;0.40;;
39822;SDS011;25499;53.958;10.970;2022-07-05T15:59:34;1.33;;;0.40;;
39822;SDS011;25499;53.958;10.970;2022-07-05T16:01:59;2.30;;;0.30;;
39822;SDS011;25499;53.958;10.970;2022-07-05T16:04:25;0.40;;;0.30;;
39822;SDS011;25499;53.958;10.970;2022-07-05T16:06:54;0.65;;;0.30;;
39822;SDS011;25499;53.958;10.970;2022-07-05T16:09:20;0.88;;;0.30;;
39822;SDS011;25499;53.958;10.970;2022-07-05T16:11:45;1.65;;;0.40;;
39822;SDS011;25499;53.958;10.970;2022-07-05T16:14:11;2.53;;;0.52;;
39822;SDS011;25499;53.958;10.970;2022-07-05T16:16:36;0.43;;;0.30;;
39822;SDS011;25499;53.958;10.970;2022-07-05T16:19:01;1.50;;;0.40;;
39822;SDS011;25499;53.958;10.970;2022-07-05T16:21:27;1.83;;;0.30;;
39822;SDS011;25499;53.958;10.970;2022-07-05T16:23:52;0.95;;;0.30;;
39822;SDS011;25499;53.958;10.970;2022-07-05T16:26:18;1.38;;;0.38;;
39822;SDS011;25499;53.958;10.970;2022-07-05T16:28:45;0.65;;;0.40;;
39822;SDS011;25499;53.958;10.970;2022-07-05T16:31:11;2.78;;;0.30;;
39822;SDS011;25499;53.958;10.970;2022-07-05T16:33:39;2.10;;;0.30;;
39822;SDS011;25499;53.958;10.970;2022-07-05T16:36:11;2.25;;;0.40;;
39822;SDS011;25499;53.958;10.970;2022-07-05T16:41:04;1.40;;;0.45;;
39822;SDS011;25499;53.958;10.970;2022-07-05T16:43:31;0.70;;;0.30;;
39822;SDS011;25499;53.958;10.970;2022-07-05T16:45:58;0.98;;;0.32;;
39822;SDS011;25499;53.958;10.970;2022-07-05T16:48:24;0.40;;;0.30;;
39822;SDS011;25499;53.958;10.970;2022-07-05T16:50:51;1.45;;;0.22;;
39822;SDS011;25499;53.958;10.970;2022-07-05T16:53:16;2.45;;;0.30;;
39822;SDS011;25499;53.958;10.970;2022-07-05T16:55:42;0.57;;;0.40;;
39822;SDS011;25499;53.958;10.970;2022-07-05T16:58:07;1.00;;;0.35;;
39822;SDS011;25499;53.958;10.970;2022-07-05T17:00:33;0.85;;;0.20;;
39822;SDS011;25499;53.958;10.970;2022-07-05T17:02:58;2.40;;;0.65;;
39822;SDS011;25499;53.958;10.970;2022-07-05T17:05:25;1.08;;;0.30;;
39822;SDS011;25499;53.958;10.970;2022-07-05T17:07:51;0.93;;;0.40;;
39822;SDS011;25499;53.958;10.970;2022-07-05T17:10:16;0.75;;;0.30;;
39822;SDS011;25499;53.958;10.970;2022-07-05T17:12:41;2.28;;;0.30;;
39822;SDS011;25499;53.958;10.970;2022-07-05T17:15:07;1.48;;;0.40;;
39822;SDS011;25499;53.958;10.970;2022-07-05T17:17:33;1.45;;;0.50;;
39822;SDS011;25499;53.958;10.970;2022-07-05T17:19:59;1.30;;;0.50;;
39822;SDS011;25499;53.958;10.970;2022-07-05T17:22:24;1.42;;;0.50;;
39822;SDS011;25499;53.958;10.970;2022-07-05T17:24:49;1.75;;;0.50;;
39822;SDS011;25499;53.958;10.970;2022-07-05T17:27:15;1.73;;;0.40;;
39822;SDS011;25499;53.958;10.970;2022-07-05T17:29:40;2.95;;;0.38;;
39822;SDS011;25499;53.958;10.970;2022-07-05T17:32:06;3.13;;;0.50;;
39822;SDS011;25499;53.958;10.970;2022-07-05T17:34:31;0.88;;;0.45;;
39822;SDS011;25499;53.958;10.970;2022-07-05T17:36:57;1.27;;;0.50;;
39822;SDS011;25499;53.958;10.970;2022-07-05T17:39:22;1.02;;;0.40;;
39822;SDS011;25499;53.958;10.970;2022-07-05T17:41:48;2.97;;;0.60;;
39822;SDS011;25499;53.958;10.970;2022-07-05T17:44:13;1.42;;;0.47;;
39822;SDS011;25499;53.958;10.970;2022-07-05T17:46:39;1.48;;;0.30;;
39822;SDS011;25499;53.958;10.970;2022-07-05T17:49:05;2.05;;;0.40;;
39822;SDS011;25499;53.958;10.970;2022-07-05T17:51:31;1.90;;;0.50;;
39822;SDS011;25499;53.958;10.970;2022-07-05T17:53:56;0.60;;;0.20;;
39822;SDS011;25499;53.958;10.970;2022-07-05T17:56:22;4.00;;;0.57;;
39822;SDS011;25499;53.958;10.970;2022-07-05T17:58:47;0.90;;;0.30;;
39822;SDS011;25499;53.958;10.970;2022-07-05T18:01:12;3.25;;;0.50;;
39822;SDS011;25499;53.958;10.970;2022-07-05T18:03:41;7.25;;;0.70;;
39822;SDS011;25499;53.958;10.970;2022-07-05T18:06:07;1.48;;;0.47;;
39822;SDS011;25499;53.958;10.970;2022-07-05T18:08:34;1.45;;;0.43;;
39822;SDS011;25499;53.958;10.970;2022-07-05T18:11:00;2.55;;;0.40;;
39822;SDS011;25499;53.958;10.970;2022-07-05T18:13:25;2.42;;;0.40;;
39822;SDS011;25499;53.958;10.970;2022-07-05T18:15:51;2.72;;;0.40;;
39822;SDS011;25499;53.958;10.970;2022-07-05T18:18:17;3.17;;;0.50;;
39822;SDS011;25499;53.958;10.970;2022-07-05T18:20:43;1.30;;;0.47;;
39822;SDS011;25499;53.958;10.970;2022-07-05T18:23:10;1.40;;;0.50;;
39822;SDS011;25499;53.958;10.970;2022-07-05T18:25:36;1.55;;;0.40;;
39822;SDS011;25499;53.958;10.970;2022-07-05T18:28:05;1.42;;;0.43;;
39822;SDS011;25499;53.958;10.970;2022-07-05T18:30:32;0.65;;;0.50;;
39822;SDS011;25499;53.958;10.970;2022-07-05T18:32:57;2.72;;;0.60;;
39822;SDS011;25499;53.958;10.970;2022-07-05T18:35:22;1.05;;;0.35;;
39822;SDS011;25499;53.958;10.970;2022-07-05T18:37:48;1.13;;;0.52;;
39822;SDS011;25499;53.958;10.970;2022-07-05T18:40:13;1.65;;;0.40;;
39822;SDS011;25499;53.958;10.970;2022-07-05T18:42:38;1.33;;;0.47;;
39822;SDS011;25499;53.958;10.970;2022-07-05T18:45:04;1.92;;;0.80;;
39822;SDS011;25499;53.958;10.970;2022-07-05T18:47:30;1.35;;;0.38;;
39822;SDS011;25499;53.958;10.970;2022-07-05T18:49:55;1.80;;;0.50;;
39822;SDS011;25499;53.958;10.970;2022-07-05T18:52:21;3.78;;;0.50;;
39822;SDS011;25499;53.958;10.970;2022-07-05T18:54:47;1.40;;;0.50;;
39822;SDS011;25499;53.958;10.970;2022-07-05T18:57:15;0.60;;;0.28;;
39822;SDS011;25499;53.958;10.970;2022-07-05T18:59:40;1.42;;;0.30;;
39822;SDS011;25499;53.958;10.970;2022-07-05T19:02:11;3.22;;;1.23;;
39822;SDS011;25499;53.958;10.970;2022-07-05T19:04:38;1.40;;;0.55;;
39822;SDS011;25499;53.958;10.970;2022-07-05T19:07:04;1.60;;;0.40;;
39822;SDS011;25499;53.958;10.970;2022-07-05T19:09:48;1.50;;;0.50;;
39822;SDS011;25499;53.958;10.970;2022-07-05T19:12:32;1.50;;;0.50;;
39822;SDS011;25499;53.958;10.970;2022-07-05T19:15:16;1.13;;;0.40;;
39822;SDS011;25499;53.958;10.970;2022-07-05T19:17:43;3.10;;;0.50;;
39822;SDS011;25499;53.958;10.970;2022-07-05T19:20:08;3.15;;;1.27;;
39822;SDS011;25499;53.958;10.970;2022-07-05T19:22:34;1.33;;;0.43;;
39822;SDS011;25499;53.958;10.970;2022-07-05T19:25:00;1.80;;;0.60;;
39822;SDS011;25499;53.958;10.970;2022-07-05T19:27:25;1.08;;;0.50;;
39822;SDS011;25499;53.958;10.970;2022-07-05T19:29:51;1.40;;;0.65;;
39822;SDS011;25499;53.958;10.970;2022-07-05T19:32:17;1.02;;;0.43;;
39822;SDS011;25499;53.958;10.970;2022-07-05T19:34:42;1.27;;;0.40;;
39822;SDS011;25499;53.958;10.970;2022-07-05T19:37:17;1.42;;;0.50;;
39822;SDS011;25499;53.958;10.970;2022-07-05T19:39:42;2.13;;;0.60;;
39822;SDS011;25499;53.958;10.970;2022-07-05T19:42:08;1.98;;;0.55;;
39822;SDS011;25499;53.958;10.970;2022-07-05T19:44:34;2.55;;;0.40;;
39822;SDS011;25499;53.958;10.970;2022-07-05T19:47:00;2.03;;;0.63;;
39822;SDS011;25499;53.958;10.970;2022-07-05T19:49:28;2.38;;;0.50;;
39822;SDS011;25499;53.958;10.970;2022-07-05T19:51:53;1.92;;;0.60;;
39822;SDS011;25499;53.958;10.970;2022-07-05T19:54:19;1.75;;;0.50;;
39822;SDS011;25499;53.958;10.970;2022-07-05T19:56:45;2.63;;;0.73;;
39822;SDS011;25499;53.958;10.970;2022-07-05T19:59:13;1.42;;;0.50;;
39822;SDS011;25499;53.958;10.970;2022-07-05T20:01:39;0.60;;;0.43;;
39822;SDS011;25499;53.958;10.970;2022-07-05T20:04:04;0.85;;;0.50;;
39822;SDS011;25499;53.958;10.970;2022-07-05T20:06:32;3.25;;;0.70;;
39822;SDS011;25499;53.958;10.970;2022-07-05T20:08:58;1.63;;;0.40;;
39822;SDS011;25499;53.958;10.970;2022-07-05T20:11:24;1.42;;;0.45;;
39822;SDS011;25499;53.958;10.970;2022-07-05T20:13:49;2.33;;;0.57;;
39822;SDS011;25499;53.958;10.970;2022-07-05T20:16:15;4.25;;;0.70;;
39822;SDS011;25499;53.958;10.970;2022-07-05T20:18:40;1.42;;;0.70;;
39822;SDS011;25499;53.958;10.970;2022-07-05T20:21:06;2.70;;;0.50;;
39822;SDS011;25499;53.958;10.970;2022-07-05T20:23:31;1.77;;;0.50;;
